Main page
METAR-TAF:

METAR-TAF

Airports :

Pamplona Airport

Pamplona, Spain

latitude: 42-46N, longitude: 001-38W, elevation: 459 m

Current weather observation

The report was made 35 minutes ago, at 14:30 UTC
Wind 12 kt from the Southeast, varying between East/Southeast and South/Southwest
Temperature 19°C
Humidity 32%
Pressure 1015 hPa
Visibility 10 km or more
Few clouds at a height of 2500 ft

METAR: LEPP 041430Z 14012KT 110V200 9999 FEW025 19/02 Q1015

Time: 17:05 (15:05 UTC)

Forecast

The report was made 1 hour and 5 minutes ago, at 14:00 UTC
Forecast valid from 04 at 15 UTC to 05 at 15 UTC
Wind 9 kt from the South
Visibility 10 km or more
no clouds below 1500 m and no cumulonimbus
Temporary
from 04 at 15 UTC to 05 at 15 UTC
Wind 15 kt from the South with gusts up to 25 kt
Probability 40% :
Temporary
from 05 at 12 UTC to 05 at 15 UTC
Wind 20 kt from the South with gusts up to 35 kt

TAF: LEPP 041400Z 0415/0515 17009KT CAVOK TX18/0515Z TN07/0504Z TEMPO 0415/0515 17015G25KT PROB40 TEMPO 0512/0515 17020G35KT

Weather observations and forecasts of more than 4000 airports (METAR and TAF reports).

The available stations are represented by yellow and red dots on the map.

Hover mouse over dot to see the name of the station.

Then click to see weather observations and forecasts.

To change the map : click on the green buttons with a black cross to zoom in, on the green button with a dash to zoom out, or on the green arrows for adjacent maps.


METAR-TAF: